Clark, Missouri
Current Conditions -  °F | °C
As of 4:55 AM on Sunday 23 Nov 2014 (Local Time) from KVER Reporting Station
Moderate Rain Moderate Rain  
Wind Chill: 55°   Ceiling: 1600
Heat Index: 55°   Visibility: 7mi
Dew Point: 52°   Wind: 9mph
Humidity: 90%   Direction: 140°SE
Pressure: 29.64"   Gusts: NA
Location:  39.28°N, 92.34°W
Report Text: KVER 231055Z AUTO 14008KT 7SM RA BKN016 OVC025 13/11 A2964 RMK AO2 P0002 T01280112
Loading
Personal Weather Stations






























Interactive Weather Map New forecast layout! Learn more

10-Day Weather Forecast

Advertisements
Track Severe Weather on mobile